createdAt,value
2023-02-08T00:00:13.550Z,14.02
2023-02-08T00:02:40.495Z,11.95
2023-02-08T00:05:07.600Z,11.40
2023-02-08T00:07:34.663Z,11.10
2023-02-08T00:10:04.951Z,10.75
2023-02-08T00:12:34.387Z,10.00
2023-02-08T00:15:01.330Z,12.07
2023-02-08T00:17:28.298Z,11.65
2023-02-08T00:19:55.129Z,12.23
2023-02-08T00:22:22.062Z,10.82
2023-02-08T00:24:50.129Z,10.52
2023-02-08T00:27:17.458Z,11.00
2023-02-08T00:29:44.314Z,12.57
2023-02-08T00:32:11.033Z,12.30
2023-02-08T00:34:38.883Z,11.90
2023-02-08T00:37:06.746Z,10.45
2023-02-08T00:39:33.518Z,11.98
2023-02-08T00:42:00.354Z,11.82
2023-02-08T00:44:27.118Z,12.70
2023-02-08T00:46:54.768Z,11.30
2023-02-08T00:49:21.714Z,12.30
2023-02-08T00:51:48.701Z,12.10
2023-02-08T00:54:19.135Z,10.93
2023-02-08T00:56:46.249Z,10.35
2023-02-08T00:59:13.400Z,12.93
2023-02-08T01:01:40.617Z,11.63
2023-02-08T01:04:07.721Z,12.00
2023-02-08T01:06:34.650Z,12.82
2023-02-08T01:09:01.400Z,12.05
2023-02-08T01:11:28.119Z,10.75
2023-02-08T01:13:59.817Z,12.90
2023-02-08T01:16:29.801Z,11.25
2023-02-08T01:18:59.121Z,12.30
2023-02-08T01:21:30.847Z,12.40
2023-02-08T01:24:00.515Z,13.02
2023-02-08T01:26:30.518Z,11.07
2023-02-08T01:28:57.831Z,11.57
2023-02-08T01:31:29.027Z,11.07
2023-02-08T01:33:56.736Z,11.80
2023-02-08T01:36:24.327Z,12.40
2023-02-08T01:38:51.096Z,10.70
2023-02-08T01:41:27.835Z,11.77
2023-02-08T01:44:13.241Z,11.20
2023-02-08T01:46:42.391Z,11.48
2023-02-08T01:49:19.593Z,12.40
2023-02-08T01:52:00.135Z,11.38
2023-02-08T01:54:31.326Z,12.13
2023-02-08T01:56:58.480Z,10.30
2023-02-08T01:59:31.025Z,12.23
2023-02-08T02:01:59.072Z,9.90
2023-02-08T02:04:27.951Z,12.82
2023-02-08T02:06:57.745Z,11.63
2023-02-08T02:09:41.621Z,11.20
2023-02-08T02:12:09.618Z,11.07
2023-02-08T02:14:38.918Z,12.02
2023-02-08T02:17:06.805Z,11.68
2023-02-08T02:19:57.231Z,11.88
2023-02-08T02:22:48.108Z,11.87
2023-02-08T02:25:15.272Z,11.27
2023-02-08T02:28:02.198Z,10.25
2023-02-08T02:30:50.442Z,10.40
2023-02-08T02:33:43.942Z,9.80
2023-02-08T02:36:28.848Z,12.40
2023-02-08T02:39:18.765Z,11.50
2023-02-08T02:42:12.970Z,12.25
2023-02-08T02:45:20.896Z,12.25
2023-02-08T02:47:53.904Z,10.77
2023-02-08T02:50:27.612Z,12.88
2023-02-08T02:53:03.732Z,11.15
2023-02-08T02:55:36.030Z,11.05
2023-02-08T02:58:05.791Z,12.32
2023-02-08T03:00:33.666Z,11.00
2023-02-08T03:03:02.580Z,10.75
2023-02-08T03:05:29.674Z,10.83
2023-02-08T03:08:15.353Z,10.57
2023-02-08T03:11:08.385Z,11.90
2023-02-08T03:13:56.546Z,10.73
2023-02-08T03:16:52.266Z,9.95
2023-02-08T03:19:32.274Z,10.93
2023-02-08T03:22:14.419Z,11.10
2023-02-08T03:25:07.890Z,10.80
2023-02-08T03:27:44.661Z,10.77
2023-02-08T03:30:49.929Z,12.30
2023-02-08T03:33:49.809Z,10.32
2023-02-08T03:36:57.700Z,11.27
2023-02-08T03:39:28.201Z,10.50
2023-02-08T03:42:00.341Z,10.50
2023-02-08T03:44:34.199Z,9.77
2023-02-08T03:47:15.754Z,9.07
2023-02-08T03:49:45.787Z,10.90
2023-02-08T03:52:12.841Z,9.55
2023-02-08T03:54:51.690Z,10.15
2023-02-08T03:57:26.298Z,10.43
2023-02-08T04:00:07.207Z,11.95
2023-02-08T04:02:43.467Z,11.00
2023-02-08T04:05:10.524Z,10.18
2023-02-08T04:07:37.424Z,10.32
2023-02-08T04:10:06.928Z,9.80
2023-02-08T04:12:33.740Z,10.00
2023-02-08T04:15:00.485Z,11.00
2023-02-08T04:17:27.326Z,10.52
2023-02-08T04:19:54.232Z,10.80
2023-02-08T04:22:21.031Z,10.13
2023-02-08T04:24:47.756Z,10.32
2023-02-08T04:27:14.502Z,10.32
2023-02-08T04:29:41.680Z,9.95
2023-02-08T04:32:11.610Z,10.85
2023-02-08T04:34:39.135Z,9.53
2023-02-08T04:37:07.469Z,9.32
2023-02-08T04:39:34.472Z,9.80
2023-02-08T04:42:03.202Z,10.18
2023-02-08T04:44:32.692Z,10.18
2023-02-08T04:47:00.401Z,10.55
2023-02-08T04:49:27.165Z,11.07
2023-02-08T04:51:53.923Z,9.98
2023-02-08T04:54:21.309Z,9.85
2023-02-08T04:56:48.345Z,9.52
2023-02-08T04:59:15.158Z,11.20
2023-02-08T05:01:41.956Z,9.68
2023-02-08T05:04:08.802Z,9.10
2023-02-08T05:06:35.895Z,8.77
2023-02-08T05:09:02.690Z,9.57
2023-02-08T05:11:29.541Z,9.82
2023-02-08T05:13:56.326Z,10.07
2023-02-08T05:16:26.110Z,10.85
2023-02-08T05:18:52.945Z,10.38
2023-02-08T05:21:19.658Z,10.13
2023-02-08T05:23:46.881Z,10.57
2023-02-08T05:26:16.314Z,8.88
2023-02-08T05:28:43.058Z,9.43
2023-02-08T05:31:19.733Z,9.33
2023-02-08T05:33:46.736Z,8.85
2023-02-08T05:36:13.539Z,9.57
2023-02-08T05:38:40.280Z,9.75
2023-02-08T05:41:07.018Z,9.88
2023-02-08T05:43:33.741Z,9.07
2023-02-08T05:46:00.580Z,10.80
2023-02-08T05:48:27.827Z,10.68
2023-02-08T05:50:54.647Z,9.85
2023-02-08T05:53:21.452Z,9.90
2023-02-08T05:55:51.662Z,8.98
2023-02-08T05:58:18.438Z,9.38
2023-02-08T06:00:47.985Z,9.35
2023-02-08T06:03:14.763Z,9.70
2023-02-08T06:05:42.071Z,10.38
2023-02-08T06:08:09.495Z,9.20
2023-02-08T06:10:36.638Z,8.93
2023-02-08T06:13:04.445Z,10.25
2023-02-08T06:15:31.414Z,9.10
2023-02-08T06:17:58.294Z,9.00
2023-02-08T06:20:25.165Z,9.43
2023-02-08T06:22:52.027Z,9.43
2023-02-08T06:25:18.761Z,9.13
2023-02-08T06:27:45.533Z,9.40
2023-02-08T06:30:13.034Z,9.73
2023-02-08T06:32:39.842Z,10.00
2023-02-08T06:35:07.188Z,10.00
2023-02-08T06:37:34.077Z,9.85
2023-02-08T06:40:01.916Z,9.88
2023-02-08T06:42:29.054Z,10.18
2023-02-08T06:44:57.907Z,11.50
2023-02-08T06:47:26.214Z,8.95
2023-02-08T06:49:53.693Z,11.35
2023-02-08T06:52:21.121Z,11.02
2023-02-08T06:54:49.969Z,12.15
2023-02-08T06:57:16.948Z,11.52
2023-02-08T06:59:43.865Z,13.77
2023-02-08T07:02:13.422Z,14.63
2023-02-08T07:04:40.534Z,14.80
2023-02-08T07:07:07.499Z,16.42
2023-02-08T07:09:35.727Z,17.00
2023-02-08T07:12:05.016Z,15.73
2023-02-08T07:14:37.031Z,17.23
2023-02-08T07:17:04.226Z,19.30
2023-02-08T07:19:31.410Z,19.25
2023-02-08T07:22:07.852Z,20.27
2023-02-08T07:24:36.349Z,21.10
2023-02-08T07:27:03.228Z,19.05
2023-02-08T07:29:31.747Z,21.60
2023-02-08T07:32:00.432Z,25.50
2023-02-08T07:34:30.312Z,40.55
2023-02-08T07:36:58.295Z,38.92
2023-02-08T07:39:26.308Z,45.72
2023-02-08T07:41:53.368Z,48.50
2023-02-08T07:44:20.597Z,48.10
2023-02-08T07:46:48.443Z,54.47
2023-02-08T07:49:15.535Z,58.05
2023-02-08T07:51:42.331Z,70.93
2023-02-08T07:54:09.107Z,117.13
2023-02-08T07:56:35.896Z,139.88
2023-02-08T07:59:02.651Z,166.48
2023-02-08T08:01:29.468Z,166.77
2023-02-08T08:03:56.342Z,194.35
2023-02-08T08:06:23.846Z,211.63
2023-02-08T08:08:51.763Z,219.90
2023-02-08T08:11:22.252Z,212.30
2023-02-08T08:13:49.897Z,210.03
2023-02-08T08:16:17.712Z,208.93
2023-02-08T08:18:44.635Z,208.38
2023-02-08T08:21:11.445Z,202.50
2023-02-08T08:23:41.075Z,203.77
2023-02-08T08:26:16.606Z,198.73
2023-02-08T08:28:43.814Z,192.60
2023-02-08T08:31:20.112Z,190.30
2023-02-08T08:33:47.646Z,191.25
2023-02-08T08:36:14.454Z,184.10
2023-02-08T08:38:43.512Z,180.27
2023-02-08T08:41:12.850Z,177.90
2023-02-08T08:43:39.700Z,173.40
2023-02-08T08:46:07.938Z,169.93
2023-02-08T08:48:35.680Z,167.93
2023-02-08T08:51:03.134Z,163.93
2023-02-08T08:53:30.403Z,169.60
2023-02-08T08:55:57.149Z,171.10
2023-02-08T08:58:23.878Z,167.13
2023-02-08T09:00:50.667Z,172.00
2023-02-08T09:03:18.376Z,162.00
2023-02-08T09:05:46.952Z,162.93
2023-02-08T09:08:13.893Z,162.13
2023-02-08T09:10:40.998Z,165.55
2023-02-08T09:13:08.498Z,167.88
2023-02-08T09:15:39.655Z,161.40
2023-02-08T09:18:06.601Z,163.85
2023-02-08T09:20:33.470Z,158.27
2023-02-08T09:23:00.346Z,158.30
2023-02-08T09:25:27.377Z,151.73
2023-02-08T09:27:54.098Z,155.52
2023-02-08T09:30:21.903Z,152.67
2023-02-08T09:32:48.735Z,151.73
2023-02-08T09:35:16.054Z,151.30
2023-02-08T09:37:44.901Z,150.10
2023-02-08T09:40:25.735Z,142.52
2023-02-08T09:43:24.409Z,146.25
2023-02-08T09:46:05.430Z,140.35
2023-02-08T09:48:36.142Z,139.07
2023-02-08T09:51:21.928Z,135.30
2023-02-08T09:53:54.122Z,130.13
2023-02-08T09:56:27.572Z,128.25
2023-02-08T09:58:56.334Z,124.50
2023-02-08T10:01:27.714Z,123.88
2023-02-08T10:04:01.287Z,123.93
2023-02-08T10:06:29.772Z,119.95
2023-02-08T10:08:59.591Z,120.27
2023-02-08T10:11:43.186Z,116.63
2023-02-08T10:14:45.108Z,113.40
2023-02-08T10:17:20.850Z,112.13
2023-02-08T10:20:02.808Z,112.03
2023-02-08T10:23:22.534Z,118.70
2023-02-08T10:26:16.817Z,117.47
2023-02-08T10:29:07.812Z,115.60
2023-02-08T10:31:49.698Z,118.60
2023-02-08T10:34:52.434Z,109.95
2023-02-08T10:37:35.954Z,110.38
2023-02-08T10:40:17.178Z,107.97
2023-02-08T10:43:07.475Z,110.18
2023-02-08T10:46:02.381Z,102.72
2023-02-08T10:48:59.909Z,100.43
2023-02-08T10:51:27.437Z,100.70
2023-02-08T10:53:54.787Z,96.43
2023-02-08T10:56:37.224Z,94.28
2023-02-08T10:59:15.510Z,99.75
2023-02-08T11:01:44.264Z,91.50
2023-02-08T11:04:13.227Z,93.50
2023-02-08T11:06:42.249Z,97.85
2023-02-08T11:09:20.716Z,88.57
2023-02-08T11:11:50.726Z,94.45
2023-02-08T11:14:19.441Z,88.43
2023-02-08T11:16:57.250Z,93.65
2023-02-08T11:19:35.511Z,94.22
2023-02-08T11:22:05.827Z,88.82
2023-02-08T11:24:41.428Z,88.72
2023-02-08T11:27:19.256Z,87.22
2023-02-08T11:29:46.324Z,91.05
2023-02-08T11:32:20.293Z,84.22
2023-02-08T11:34:47.278Z,87.35
2023-02-08T11:37:15.960Z,82.97
2023-02-08T11:39:58.539Z,83.68
2023-02-08T11:42:34.832Z,79.32
2023-02-08T11:45:02.396Z,83.28
2023-02-08T11:47:32.765Z,78.38
2023-02-08T11:50:02.794Z,75.15
2023-02-08T11:52:37.753Z,77.57
2023-02-08T11:55:16.818Z,80.82
2023-02-08T11:57:55.565Z,76.45
2023-02-08T12:00:26.202Z,75.45
2023-02-08T12:03:01.975Z,75.97
2023-02-08T12:05:48.520Z,75.10
2023-02-08T12:08:24.378Z,75.00
2023-02-08T12:11:05.785Z,76.67
2023-02-08T12:13:52.985Z,72.45
2023-02-08T12:16:51.200Z,71.63
2023-02-08T12:19:46.961Z,70.05
2023-02-08T12:22:29.608Z,67.88
2023-02-08T12:25:14.666Z,71.47
2023-02-08T12:27:49.526Z,65.75
2023-02-08T12:30:28.468Z,67.40
2023-02-08T12:33:16.713Z,72.60
2023-02-08T12:36:10.608Z,65.73
2023-02-08T12:39:26.156Z,65.55
2023-02-08T12:42:27.949Z,65.75
2023-02-08T12:45:14.776Z,62.60
2023-02-08T12:48:06.721Z,65.45
2023-02-08T12:51:01.168Z,64.13
2023-02-08T12:53:33.526Z,66.22
2023-02-08T12:56:06.758Z,67.28
2023-02-08T12:58:56.860Z,68.75
2023-02-08T13:01:31.846Z,66.78
2023-02-08T13:04:30.788Z,62.60
2023-02-08T13:07:01.605Z,66.22
2023-02-08T13:10:04.088Z,67.10
2023-02-08T13:12:38.627Z,68.65
2023-02-08T13:15:24.801Z,65.85
2023-02-08T13:18:04.173Z,76.72
2023-02-08T13:20:58.321Z,78.30
2023-02-08T13:23:38.435Z,81.00
2023-02-08T13:26:21.713Z,85.63
2023-02-08T13:28:53.928Z,84.15
2023-02-08T13:31:39.073Z,83.22
2023-02-08T13:34:14.847Z,83.93
2023-02-08T13:36:50.172Z,85.03
2023-02-08T13:39:36.054Z,85.28
2023-02-08T13:42:06.472Z,80.40
2023-02-08T13:44:38.415Z,79.90
2023-02-08T13:47:07.196Z,81.53
2023-02-08T13:49:55.754Z,79.18
2023-02-08T13:52:47.152Z,74.70
2023-02-08T13:55:33.358Z,77.68
2023-02-08T13:58:01.298Z,78.73
2023-02-08T14:00:35.701Z,75.35
2023-02-08T14:03:04.130Z,74.13
2023-02-08T14:05:41.752Z,75.80
2023-02-08T14:08:19.427Z,72.65
2023-02-08T14:11:01.963Z,74.97
2023-02-08T14:13:41.075Z,73.40
2023-02-08T14:16:29.149Z,68.60
2023-02-08T14:18:59.347Z,72.68
2023-02-08T14:21:38.162Z,71.25
2023-02-08T14:24:08.791Z,72.03
2023-02-08T14:26:37.466Z,72.68
2023-02-08T14:29:06.864Z,71.22
2023-02-08T14:31:45.095Z,71.20
2023-02-08T14:34:34.778Z,75.10
2023-02-08T14:37:24.699Z,71.65
2023-02-08T14:40:22.927Z,66.70
2023-02-08T14:42:55.738Z,87.85
2023-02-08T14:45:34.730Z,81.10
2023-02-08T14:48:23.275Z,86.63
2023-02-08T14:51:08.828Z,85.07
2023-02-08T14:53:41.551Z,81.88
2023-02-08T14:56:11.101Z,80.05
2023-02-08T14:58:41.263Z,79.40
2023-02-08T15:01:28.234Z,78.60
2023-02-08T15:04:00.444Z,82.57
2023-02-08T15:06:31.518Z,79.45
2023-02-08T15:08:58.477Z,75.10
2023-02-08T15:11:29.704Z,67.57
2023-02-08T15:14:01.371Z,70.82
2023-02-08T15:16:43.300Z,64.30
2023-02-08T15:19:22.741Z,69.28
2023-02-08T15:21:49.533Z,66.63
2023-02-08T15:24:22.702Z,68.25
2023-02-08T15:26:54.732Z,67.47
2023-02-08T15:29:43.936Z,66.33
2023-02-08T15:32:17.633Z,61.90
2023-02-08T15:34:48.174Z,61.13
2023-02-08T15:37:18.911Z,58.03
2023-02-08T15:39:57.271Z,59.90
2023-02-08T15:42:28.818Z,58.15
2023-02-08T15:44:56.377Z,56.65
2023-02-08T15:47:30.618Z,56.00
2023-02-08T15:49:58.790Z,55.90
2023-02-08T15:52:31.205Z,52.55
2023-02-08T15:54:58.129Z,53.08
2023-02-08T15:57:45.903Z,51.73
2023-02-08T16:00:26.219Z,52.35
2023-02-08T16:02:59.914Z,51.25
2023-02-08T16:05:30.392Z,48.10
2023-02-08T16:07:58.877Z,45.88
2023-02-08T16:10:28.346Z,45.17
2023-02-08T16:12:58.657Z,45.73
2023-02-08T16:15:40.525Z,45.80
2023-02-08T16:18:35.630Z,45.95
2023-02-08T16:21:04.799Z,46.20
2023-02-08T16:23:33.905Z,43.65
2023-02-08T16:26:23.760Z,44.38
2023-02-08T16:29:06.149Z,42.83
2023-02-08T16:31:35.321Z,41.60
2023-02-08T16:34:07.709Z,41.70
2023-02-08T16:36:49.144Z,42.47
2023-02-08T16:39:18.643Z,38.35
2023-02-08T16:42:09.586Z,40.10
2023-02-08T16:45:12.824Z,39.97
2023-02-08T16:47:58.442Z,38.13
2023-02-08T16:50:28.447Z,37.20
2023-02-08T16:53:04.074Z,35.30
2023-02-08T16:55:36.094Z,36.78
2023-02-08T16:58:02.916Z,36.70
2023-02-08T17:00:32.051Z,32.75
2023-02-08T17:02:59.471Z,34.55
2023-02-08T17:05:38.509Z,36.00
2023-02-08T17:08:09.735Z,34.40
2023-02-08T17:10:37.132Z,34.42
2023-02-08T17:13:19.207Z,33.88
2023-02-08T17:15:49.239Z,32.47
2023-02-08T17:18:16.313Z,31.40
2023-02-08T17:20:43.957Z,33.80
2023-02-08T17:23:11.935Z,31.83
2023-02-08T17:25:39.495Z,30.80
2023-02-08T17:28:14.969Z,31.55
2023-02-08T17:30:43.487Z,30.95
2023-02-08T17:33:17.804Z,29.83
2023-02-08T17:35:49.604Z,29.97
2023-02-08T17:38:20.028Z,31.33
2023-02-08T17:40:47.320Z,30.15
2023-02-08T17:43:14.638Z,29.25
2023-02-08T17:45:43.779Z,31.30
2023-02-08T17:48:13.339Z,28.50
2023-02-08T17:50:43.026Z,27.88
2023-02-08T17:53:09.963Z,28.85
2023-02-08T17:55:36.744Z,27.88
2023-02-08T17:58:03.541Z,29.73
2023-02-08T18:00:30.287Z,27.03
2023-02-08T18:02:59.763Z,27.60
2023-02-08T18:05:28.623Z,28.77
2023-02-08T18:07:56.507Z,28.77
2023-02-08T18:10:24.676Z,26.60
2023-02-08T18:12:51.675Z,25.90
2023-02-08T18:15:21.041Z,27.13
2023-02-08T18:17:48.465Z,26.03
2023-02-08T18:20:16.071Z,26.38
2023-02-08T18:22:43.801Z,26.95
2023-02-08T18:25:12.070Z,28.45
2023-02-08T18:27:39.060Z,24.92
2023-02-08T18:30:06.468Z,27.45
2023-02-08T18:32:33.852Z,24.55
2023-02-08T18:35:03.547Z,25.98
2023-02-08T18:37:31.775Z,26.13
2023-02-08T18:39:58.998Z,24.48
2023-02-08T18:42:25.827Z,25.15
2023-02-08T18:44:52.629Z,24.90
2023-02-08T18:47:19.516Z,23.50
2023-02-08T18:49:47.750Z,24.33
2023-02-08T18:52:17.433Z,24.15
2023-02-08T18:54:44.240Z,23.25
2023-02-08T18:57:11.026Z,22.20
2023-02-08T18:59:38.921Z,25.23
2023-02-08T19:02:07.222Z,24.98
2023-02-08T19:04:40.317Z,23.88
2023-02-08T19:07:07.476Z,24.25
2023-02-08T19:09:38.385Z,23.10
2023-02-08T19:12:05.636Z,23.08
2023-02-08T19:14:32.495Z,21.80
2023-02-08T19:16:59.882Z,22.47
2023-02-08T19:19:26.618Z,22.30
2023-02-08T19:21:53.422Z,21.88
2023-02-08T19:24:20.213Z,21.83
2023-02-08T19:26:47.458Z,21.35
2023-02-08T19:29:17.421Z,20.80
2023-02-08T19:31:44.957Z,22.00
2023-02-08T19:34:12.581Z,20.63
2023-02-08T19:36:46.415Z,20.73
2023-02-08T19:39:16.903Z,22.77
2023-02-08T19:41:45.296Z,22.53
2023-02-08T19:44:14.556Z,21.23
2023-02-08T19:46:44.035Z,19.57
2023-02-08T19:49:12.687Z,20.77
2023-02-08T19:51:39.949Z,22.20
2023-02-08T19:54:13.033Z,21.65
2023-02-08T19:56:40.397Z,21.67
2023-02-08T19:59:14.438Z,20.80
2023-02-08T20:01:41.449Z,21.92
2023-02-08T20:04:08.209Z,22.77
2023-02-08T20:06:38.630Z,21.70
2023-02-08T20:09:06.760Z,21.23
2023-02-08T20:11:38.674Z,22.45
2023-02-08T20:14:11.534Z,20.02
2023-02-08T20:16:38.346Z,21.70
2023-02-08T20:19:05.333Z,19.42
2023-02-08T20:21:32.438Z,18.57
2023-02-08T20:24:01.194Z,20.10
2023-02-08T20:26:29.782Z,20.83
2023-02-08T20:28:58.861Z,19.38
2023-02-08T20:31:31.728Z,20.88
2023-02-08T20:34:00.993Z,20.00
2023-02-08T20:36:30.145Z,21.35
2023-02-08T20:38:58.380Z,18.42
2023-02-08T20:41:27.358Z,19.58
2023-02-08T20:43:54.593Z,19.80
2023-02-08T20:46:24.355Z,18.60
2023-02-08T20:48:52.738Z,18.52
2023-02-08T20:51:21.377Z,20.83
2023-02-08T20:53:49.842Z,19.27
2023-02-08T20:56:23.321Z,17.77
2023-02-08T20:58:50.595Z,18.65
2023-02-08T21:01:21.181Z,18.75
2023-02-08T21:03:48.497Z,17.90
2023-02-08T21:06:18.533Z,18.17
2023-02-08T21:08:51.428Z,17.80
2023-02-08T21:11:26.759Z,17.40
2023-02-08T21:13:54.054Z,18.20
2023-02-08T21:16:21.130Z,20.90
2023-02-08T21:18:47.985Z,17.40
2023-02-08T21:21:15.303Z,19.88
2023-02-08T21:23:42.840Z,16.85
2023-02-08T21:26:12.804Z,16.65
2023-02-08T21:28:39.674Z,18.37
2023-02-08T21:31:08.923Z,16.55
2023-02-08T21:33:35.849Z,16.98
2023-02-08T21:36:04.887Z,15.47
2023-02-08T21:38:31.663Z,16.50
2023-02-08T21:40:58.396Z,16.75
2023-02-08T21:43:25.088Z,16.33
2023-02-08T21:45:51.884Z,15.70
2023-02-08T21:48:18.640Z,15.95
2023-02-08T21:51:08.389Z,15.50
2023-02-08T21:53:53.875Z,15.60
2023-02-08T21:56:20.663Z,17.15
2023-02-08T21:58:47.423Z,15.25
2023-02-08T22:01:14.134Z,15.48
2023-02-08T22:03:40.927Z,16.35
2023-02-08T22:06:07.844Z,16.33
2023-02-08T22:08:34.616Z,15.75
2023-02-08T22:11:04.617Z,14.37
2023-02-08T22:13:33.084Z,15.82
2023-02-08T22:16:00.612Z,15.38
2023-02-08T22:18:27.482Z,15.40
2023-02-08T22:20:54.629Z,14.35
2023-02-08T22:23:21.730Z,14.93
2023-02-08T22:25:48.614Z,15.38
2023-02-08T22:28:15.556Z,14.23
2023-02-08T22:30:42.532Z,16.52
2023-02-08T22:33:09.389Z,15.25
2023-02-08T22:35:38.562Z,15.38
2023-02-08T22:38:05.345Z,14.75
2023-02-08T22:40:32.108Z,15.60
2023-02-08T22:42:58.915Z,15.10
2023-02-08T22:45:25.787Z,13.55
2023-02-08T22:47:52.465Z,13.48
2023-02-08T22:50:19.242Z,12.63
2023-02-08T22:52:46.041Z,15.17
2023-02-08T22:55:12.922Z,15.05
2023-02-08T22:57:43.216Z,14.23
2023-02-08T23:00:10.718Z,15.17
2023-02-08T23:02:37.407Z,14.38
2023-02-08T23:05:04.393Z,12.77
2023-02-08T23:07:31.258Z,12.90
2023-02-08T23:09:58.064Z,13.90
2023-02-08T23:12:24.927Z,12.25
2023-02-08T23:14:51.758Z,14.43
2023-02-08T23:17:18.461Z,13.75
2023-02-08T23:19:45.327Z,13.23
2023-02-08T23:22:12.257Z,11.48
2023-02-08T23:24:39.001Z,13.68
2023-02-08T23:27:05.878Z,14.20
2023-02-08T23:29:32.552Z,12.90
2023-02-08T23:31:59.398Z,14.63
2023-02-08T23:34:27.053Z,12.38
2023-02-08T23:36:53.846Z,13.15
2023-02-08T23:39:20.678Z,11.98
2023-02-08T23:41:47.405Z,13.15
2023-02-08T23:44:14.164Z,13.15
2023-02-08T23:46:40.918Z,11.40
2023-02-08T23:49:07.725Z,12.77
2023-02-08T23:51:34.535Z,12.27
2023-02-08T23:54:01.380Z,14.10
2023-02-08T23:56:31.821Z,12.63
2023-02-08T23:58:59.329Z,11.65
